»·PEaware :: N55NT KDLN-KCDC

N55NT :: KDLN-KCDC

FLIGHT INFORMATION

Flight Status: Arrived
Operator: Privately registered:
United States
More flights under this callsign
Pilot: Craig H. (6968)
Aircraft: PILATUS PC-12 EAGLE
(PC12)
More flights by this aircraft type
Origin: KDLN Dillon
United States
Destination: KCDC Cedar City Regl
United States
More flights between these airports :: More routes between these airports
Route: DTA
File this flight plan on PilotEdge
Remarks:
Altitude:
(Current/Filed)
29,000ft
Speed:
(Current/Filed)
250kts
Departed: 17-Jul-20 09:21 AM
Arrived: 17-Jul-20 11:19 AM
Distance/Time
Traveled:
454nm/1:58
Distance/Time
To Go:
Arrived

Flight Plot

Page will automatically refresh every two minutes.

Flight plan parsing failed; only flown route is shown


Map Options




Map Legend


Flown Route
Filed Route
Departure Airport
Arrival Airport
Navaid (VOR, NDB)
Fix

Horizontal Profiles

Position Reports

Time Latitude Longitude Heading Altitude Ground
Speed
17-Jul-20 09:07 45.255643 -112.553440 91 5245ft 0kts
17-Jul-20 09:08 45.255643 -112.553440 91 5245ft 0kts
17-Jul-20 09:09 45.255643 -112.553440 91 5245ft 0kts
17-Jul-20 09:10 45.255643 -112.553440 91 5245ft 0kts
17-Jul-20 09:11 45.255643 -112.553440 91 5245ft 0kts
17-Jul-20 09:12 45.255643 -112.553440 91 5245ft 0kts
17-Jul-20 09:13 45.255643 -112.553440 91 5245ft 0kts
17-Jul-20 09:14 45.255643 -112.553440 91 5245ft 0kts
17-Jul-20 09:15 45.255643 -112.553440 91 5245ft 0kts
17-Jul-20 09:16 45.255658 -112.553281 64 5245ft 3kts
17-Jul-20 09:17 45.258082 -112.553162 357 5245ft 13kts
17-Jul-20 09:18 45.262097 -112.553297 358 5245ft 15kts
17-Jul-20 09:19 45.266044 -112.553320 48 5245ft 9kts
17-Jul-20 09:20 45.257257 -112.552211 175 5298ft 122kts
17-Jul-20 09:21 45.217361 -112.550694 177 7472ft 160kts
17-Jul-20 09:22 45.172349 -112.551357 181 9700ft 162kts
17-Jul-20 09:23 45.126355 -112.550996 185 11566ft 173kts
17-Jul-20 09:24 45.076573 -112.550764 186 13529ft 184kts
17-Jul-20 09:25 45.024786 -112.550336 187 15417ft 184kts
17-Jul-20 09:26 44.973292 -112.549970 186 17240ft 190kts
17-Jul-20 09:27 44.919596 -112.549496 186 18862ft 196kts
17-Jul-20 09:28 44.864150 -112.549023 185 20302ft 201kts
17-Jul-20 09:29 44.807711 -112.548544 185 21572ft 206kts
17-Jul-20 09:30 44.749876 -112.548008 185 22716ft 210kts
17-Jul-20 09:31 44.691171 -112.547460 185 23744ft 213kts
17-Jul-20 09:32 44.631633 -112.546957 185 24666ft 216kts
17-Jul-20 09:33 44.573942 -112.546406 185 25870ft 205kts
17-Jul-20 09:34 44.516342 -112.545968 185 26758ft 209kts
17-Jul-20 09:35 44.458000 -112.545477 185 27560ft 211kts
17-Jul-20 09:36 44.398897 -112.544987 184 28285ft 214kts
17-Jul-20 09:37 44.339111 -112.544486 184 28940ft 216kts
17-Jul-20 09:38 44.276386 -112.544042 184 29093ft 236kts
17-Jul-20 09:39 44.209098 -112.543458 184 29113ft 249kts
17-Jul-20 09:40 44.138740 -112.542859 183 29130ft 256kts
17-Jul-20 09:41 44.066988 -112.542260 183 29130ft 259kts
17-Jul-20 09:42 43.994949 -112.541655 183 29130ft 260kts
17-Jul-20 09:43 43.922397 -112.541057 183 29130ft 261kts
17-Jul-20 09:44 43.849855 -112.540453 183 29129ft 261kts
17-Jul-20 09:45 43.777152 -112.539853 183 29129ft 261kts
17-Jul-20 09:46 43.704577 -112.539259 183 29129ft 261kts
17-Jul-20 09:47 43.632032 -112.538661 183 29129ft 261kts
17-Jul-20 09:48 43.559588 -112.538065 183 29130ft 261kts
17-Jul-20 09:49 43.486856 -112.537472 183 29126ft 261kts
17-Jul-20 09:50 43.414402 -112.536878 183 29115ft 261kts
17-Jul-20 09:51 43.341746 -112.536288 183 29105ft 262kts
17-Jul-20 09:52 43.268961 -112.535694 183 29104ft 261kts
17-Jul-20 09:53 43.196251 -112.535105 183 29103ft 262kts
17-Jul-20 09:54 43.123529 -112.534520 183 29103ft 262kts
17-Jul-20 09:55 43.050685 -112.533930 183 29103ft 262kts
17-Jul-20 09:56 42.978070 -112.533276 184 29103ft 260kts
17-Jul-20 09:57 42.906488 -112.532716 184 29102ft 255kts
17-Jul-20 09:58 42.836120 -112.532190 185 29104ft 250kts
17-Jul-20 09:59 42.766811 -112.531646 185 29104ft 248kts
17-Jul-20 10:00 42.697944 -112.531098 185 29104ft 247kts
17-Jul-20 10:01 42.629185 -112.530550 185 29105ft 247kts
17-Jul-20 10:02 42.560634 -112.530008 185 29106ft 247kts
17-Jul-20 10:03 42.492009 -112.529464 185 29115ft 247kts
17-Jul-20 10:04 42.423300 -112.528907 185 29125ft 246kts
17-Jul-20 10:05 42.354828 -112.528377 185 29130ft 246kts
17-Jul-20 10:06 42.286469 -112.527841 185 29130ft 247kts
17-Jul-20 10:07 42.217937 -112.527308 185 29129ft 246kts
17-Jul-20 10:08 42.149350 -112.526755 185 29129ft 247kts
17-Jul-20 10:09 42.080745 -112.526234 185 29129ft 246kts
17-Jul-20 10:10 42.012423 -112.525683 185 29129ft 246kts
17-Jul-20 10:11 41.943794 -112.525159 185 29129ft 246kts
17-Jul-20 10:12 41.875364 -112.524631 185 29131ft 247kts
17-Jul-20 10:13 41.806682 -112.524104 185 29131ft 247kts
17-Jul-20 10:14 41.737945 -112.523568 185 29131ft 247kts
17-Jul-20 10:15 41.669313 -112.523046 185 29131ft 247kts
17-Jul-20 10:16 41.600399 -112.522514 185 29131ft 247kts
17-Jul-20 10:17 41.531832 -112.521995 185 29130ft 247kts
17-Jul-20 10:18 41.463003 -112.521466 185 29130ft 247kts
17-Jul-20 10:19 41.394316 -112.520924 185 29130ft 247kts
17-Jul-20 10:20 41.325694 -112.520409 185 29130ft 247kts
17-Jul-20 10:22 41.256820 -112.519881 185 29130ft 247kts
17-Jul-20 10:23 41.188098 -112.519357 185 29129ft 247kts
17-Jul-20 10:24 41.119307 -112.518835 185 29129ft 247kts
17-Jul-20 10:25 41.050839 -112.518304 185 29139ft 245kts
17-Jul-20 10:26 40.982966 -112.517791 185 29150ft 242kts
17-Jul-20 10:27 40.916278 -112.517288 185 29154ft 238kts
17-Jul-20 10:28 40.850913 -112.516806 185 29159ft 238kts
17-Jul-20 10:29 40.784797 -112.516312 185 29159ft 238kts
17-Jul-20 10:30 40.718539 -112.515816 185 29159ft 238kts
17-Jul-20 10:31 40.652469 -112.515357 184 29158ft 238kts
17-Jul-20 10:32 40.586294 -112.514844 184 29158ft 238kts
17-Jul-20 10:33 40.520053 -112.514334 184 29157ft 238kts
17-Jul-20 10:34 40.454028 -112.513837 184 29157ft 238kts
17-Jul-20 10:35 40.387872 -112.513347 184 29157ft 238kts
17-Jul-20 10:36 40.321712 -112.512857 184 29156ft 238kts
17-Jul-20 10:37 40.255540 -112.512367 184 29156ft 238kts
17-Jul-20 10:38 40.189239 -112.511882 184 29155ft 238kts
17-Jul-20 10:39 40.123118 -112.511393 184 29155ft 238kts
17-Jul-20 10:39 40.068256 -112.510987 184 29155ft 238kts
17-Jul-20 10:40 40.002051 -112.510503 184 29154ft 238kts
17-Jul-20 10:42 39.924924 -112.509939 184 29110ft 239kts
17-Jul-20 10:42 39.869456 -112.509538 184 29079ft 239kts
17-Jul-20 10:43 39.802756 -112.509051 184 29047ft 240kts
17-Jul-20 10:44 39.735975 -112.508562 184 29035ft 239kts
17-Jul-20 10:45 39.669396 -112.508077 184 29023ft 239kts
17-Jul-20 10:46 39.603121 -112.507597 184 29023ft 239kts
17-Jul-20 10:47 39.536618 -112.507113 184 29022ft 239kts
17-Jul-20 10:48 39.470348 -112.506635 184 29022ft 238kts
17-Jul-20 10:49 39.403996 -112.506155 184 29022ft 238kts
17-Jul-20 10:50 39.337803 -112.505676 184 29021ft 238kts
17-Jul-20 10:51 39.273305 -112.516881 199 29021ft 233kts
17-Jul-20 10:52 39.208620 -112.540949 199 28141ft 251kts
17-Jul-20 10:53 39.141044 -112.566454 199 26944ft 250kts
17-Jul-20 10:54 39.075531 -112.591132 199 25739ft 243kts
17-Jul-20 10:55 39.009916 -112.615876 199 24540ft 248kts
17-Jul-20 10:56 38.945154 -112.640180 198 24051ft 235kts
17-Jul-20 10:57 38.882365 -112.663743 197 24096ft 235kts
17-Jul-20 10:58 38.819581 -112.687163 197 24150ft 235kts
17-Jul-20 10:59 38.756840 -112.710585 197 24190ft 235kts
17-Jul-20 11:00 38.694037 -112.734005 197 24211ft 236kts
17-Jul-20 11:01 38.630692 -112.757587 197 23925ft 246kts
17-Jul-20 11:02 38.564402 -112.782264 197 22649ft 249kts
17-Jul-20 11:03 38.498108 -112.806841 197 21355ft 249kts
17-Jul-20 11:04 38.431173 -112.831616 197 20054ft 252kts
17-Jul-20 11:05 38.363269 -112.856702 196 18586ft 257kts
17-Jul-20 11:06 38.294467 -112.882061 196 17082ft 258kts
17-Jul-20 11:07 38.225566 -112.907405 196 15575ft 258kts
17-Jul-20 11:08 38.156758 -112.932681 196 14065ft 258kts
17-Jul-20 11:09 38.088236 -112.957812 196 12558ft 257kts
17-Jul-20 11:10 38.020771 -112.982499 196 11051ft 242kts
17-Jul-20 11:11 37.959341 -113.004948 196 10569ft 218kts
17-Jul-20 11:12 37.903267 -113.012009 181 9251ft 202kts
17-Jul-20 11:13 37.847286 -113.016459 185 7946ft 201kts
17-Jul-20 11:14 37.800074 -113.020675 185 7664ft 139kts
17-Jul-20 11:15 37.767050 -113.042189 213 6970ft 129kts
17-Jul-20 11:16 37.739722 -113.065594 211 6368ft 108kts
17-Jul-20 11:17 37.716285 -113.085897 211 5825ft 103kts
17-Jul-20 11:18 37.700357 -113.099477 213 5595ft 30kts
17-Jul-20 11:19 37.696025 -113.101847 104 5588ft 0kts
17-Jul-20 11:20 37.696284 -113.100032 72 5594ft 10kts
17-Jul-20 11:21 37.695953 -113.098959 252 5599ft 0kts
17-Jul-20 11:22 37.695953 -113.098959 252 5599ft 0kts

Navigation Log

Ident Type
Flight plan parsing failed, navigation log unavailable